createdAt,value
2018-12-25T00:01:39.141Z,2.8
2018-12-25T00:16:50.994Z,2.9
2018-12-25T00:32:02.358Z,2.9
2018-12-25T00:47:13.936Z,3
2018-12-25T01:02:25.561Z,3
2018-12-25T01:17:37.167Z,3.1
2018-12-25T01:32:43.704Z,2.9
2018-12-25T01:48:00.357Z,2.9
2018-12-25T02:03:11.967Z,2.8
2018-12-25T02:18:25.028Z,2.8
2018-12-25T02:33:35.097Z,2.8
2018-12-25T02:48:46.624Z,2.8
2018-12-25T03:03:58.178Z,2.8
2018-12-25T03:19:09.790Z,2.9
2018-12-25T03:34:21.355Z,3
2018-12-25T03:49:30.895Z,3
2018-12-25T04:04:44.720Z,3.1
2018-12-25T04:19:56.269Z,3.2
2018-12-25T04:35:07.897Z,3.3
2018-12-25T04:50:12.122Z,3.4
2018-12-25T05:05:31.697Z,3.5
2018-12-25T05:20:43.291Z,3.6
2018-12-25T05:35:55.037Z,3.6
2018-12-25T05:51:06.847Z,3.6
2018-12-25T06:06:18.611Z,3.5
2018-12-25T06:21:30.398Z,3.5
2018-12-25T06:36:42.107Z,3.5
2018-12-25T06:51:54.031Z,3.6
2018-12-25T07:07:00.804Z,3.6
2018-12-25T07:22:17.574Z,3.7
2018-12-25T07:37:29.424Z,3.7
2018-12-25T07:52:41.281Z,3.7
2018-12-25T08:07:53.163Z,3.8
2018-12-25T08:23:05.037Z,3.8
2018-12-25T08:38:17.045Z,3.8
2018-12-25T08:53:28.827Z,3.7
2018-12-25T09:08:40.926Z,3.8
2018-12-25T09:23:49.629Z,4
2018-12-25T09:39:04.664Z,4.1
2018-12-25T09:54:16.842Z,4.2
2018-12-25T10:09:28.854Z,4.3
2018-12-25T10:24:40.920Z,4.3
2018-12-25T10:39:52.953Z,4.3
2018-12-25T10:55:05.102Z,4.4
2018-12-25T11:10:19.070Z,4.5
2018-12-25T11:25:29.265Z,4.6
2018-12-25T11:40:40.125Z,4.7
2018-12-25T11:55:53.751Z,4.7
2018-12-25T12:11:06.073Z,4.8
2018-12-25T12:26:18.214Z,4.8
2018-12-25T12:41:22.933Z,4.7
2018-12-25T12:56:42.757Z,4.8
2018-12-25T13:11:54.916Z,4.8
2018-12-25T13:27:07.154Z,4.8
2018-12-25T13:42:19.414Z,4.9
2018-12-25T13:57:31.691Z,5
2018-12-25T14:12:43.989Z,5
2018-12-25T14:27:56.295Z,5
2018-12-25T14:43:08.626Z,4.9
2018-12-25T14:58:15.176Z,4.9
2018-12-25T15:13:33.053Z,4.8
2018-12-25T15:28:46.398Z,4.8
2018-12-25T15:43:57.591Z,4.8
2018-12-25T15:59:09.879Z,4.8
2018-12-25T16:14:22.134Z,4.9
2018-12-25T16:29:34.734Z,4.8
2018-12-25T16:44:46.703Z,4.9
2018-12-25T16:59:58.979Z,4.9
2018-12-25T17:15:07.450Z,5
2018-12-25T17:30:23.460Z,4.9
2018-12-25T17:45:35.745Z,5
2018-12-25T18:00:48.048Z,5
2018-12-25T18:16:00.341Z,5
2018-12-25T18:31:12.888Z,5
2018-12-25T18:46:24.980Z,5
2018-12-25T19:01:37.376Z,5
2018-12-25T19:16:51.481Z,5
2018-12-25T19:31:59.218Z,5
2018-12-25T19:47:15.492Z,5
2018-12-25T20:02:26.551Z,4.9
2018-12-25T20:17:38.884Z,4.9
2018-12-25T20:32:42.054Z,4.8
2018-12-25T20:48:03.395Z,4.9
2018-12-25T21:03:15.751Z,4.9
2018-12-25T21:18:28.799Z,5
2018-12-25T21:33:40.276Z,5
2018-12-25T21:48:50.998Z,5
2018-12-25T22:04:05.054Z,5.1
2018-12-25T22:19:17.416Z,5.1
2018-12-25T22:34:29.640Z,5.1
2018-12-25T22:49:34.307Z,5.1
2018-12-25T23:04:54.343Z,5.1
2018-12-25T23:20:06.674Z,5.1
2018-12-25T23:35:19.081Z,5.1
2018-12-25T23:50:31.415Z,5.2
